Kinston Regional Jetport At Stallings Field Kinston US
ICAO: KISO
IATA: ISO
Category: Medium
Scheduled Services: No

Elevation: 93 ft
TransAlt. 18000 ft.

Airport Communications:
SEYMOUR JOHN APP/DEP:127.3
AWOS 3:132.75
CTAF:120.6
GND:121.9
RALEIGH RDO:109.6
TWR:120.6
UNICOM:122.95

KISO Zoom In..

Runways:

(A) RW 05 length 11500 ft width 150 ft
ILS 111.30 / hdg 50

(B) RW 23 length 11500 ft width 150 ft
---- / hdg 230

Location; KISO
Day. 23 / Time. 03.35 Zulu
* Altimeter: 29.83
* Temperature: 27° c. 80.6°f.
* Wind from: 120° Speed 05 kn.
Dewpoint: 24° c.
Visibility: 10 Statute Miles.
Clouds: Broken 1900 ft.
Clouds: Overcast 4000 ft.

KISO 230335Z AUTO 12005KT 10SM BKN019 OVC040 27/24 A2983 RMK AO2 T02650237


Wind From 120°
Speed 05 kn.

 
 
jpsmedia.com for Web Design worldairports.se 2018   terms of use